sensor_id;sensor_type;location;lat;lon;timestamp;temperature;humidity
60965;DHT22;46834;51.100;6.886;2022-12-11T00:00:40;3.20;48.00
60965;DHT22;46834;51.100;6.886;2022-12-11T00:03:06;3.20;48.00
60965;DHT22;46834;51.100;6.886;2022-12-11T00:05:32;3.20;48.00
60965;DHT22;46834;51.100;6.886;2022-12-11T00:07:59;3.20;48.00
60965;DHT22;46834;51.100;6.886;2022-12-11T00:10:25;3.20;47.90
60965;DHT22;46834;51.100;6.886;2022-12-11T00:12:50;3.20;47.90
60965;DHT22;46834;51.100;6.886;2022-12-11T00:15:16;3.30;48.00
60965;DHT22;46834;51.100;6.886;2022-12-11T00:17:42;3.20;47.90
60965;DHT22;46834;51.100;6.886;2022-12-11T00:20:08;3.30;48.00
60965;DHT22;46834;51.100;6.886;2022-12-11T00:22:35;3.30;48.00
60965;DHT22;46834;51.100;6.886;2022-12-11T00:25:00;3.30;48.00
60965;DHT22;46834;51.100;6.886;2022-12-11T00:27:26;3.30;48.00
60965;DHT22;46834;51.100;6.886;2022-12-11T00:29:52;3.30;48.00
60965;DHT22;46834;51.100;6.886;2022-12-11T00:32:17;3.30;48.00
60965;DHT22;46834;51.100;6.886;2022-12-11T00:34:43;3.30;48.00
60965;DHT22;46834;51.100;6.886;2022-12-11T00:37:09;3.30;48.00
60965;DHT22;46834;51.100;6.886;2022-12-11T00:39:36;3.30;48.00
60965;DHT22;46834;51.100;6.886;2022-12-11T00:42:04;3.30;48.00
60965;DHT22;46834;51.100;6.886;2022-12-11T00:44:30;3.30;48.00
60965;DHT22;46834;51.100;6.886;2022-12-11T00:46:56;3.30;48.00
60965;DHT22;46834;51.100;6.886;2022-12-11T00:49:22;3.30;48.00
60965;DHT22;46834;51.100;6.886;2022-12-11T00:51:47;3.30;48.00
60965;DHT22;46834;51.100;6.886;2022-12-11T00:54:13;3.30;48.00
60965;DHT22;46834;51.100;6.886;2022-12-11T00:56:39;3.30;47.90
60965;DHT22;46834;51.100;6.886;2022-12-11T00:59:04;3.30;48.00
60965;DHT22;46834;51.100;6.886;2022-12-11T01:01:30;3.40;48.00
60965;DHT22;46834;51.100;6.886;2022-12-11T01:03:56;3.40;48.10
60965;DHT22;46834;51.100;6.886;2022-12-11T01:06:23;3.40;48.00
60965;DHT22;46834;51.100;6.886;2022-12-11T01:08:51;3.40;48.00
60965;DHT22;46834;51.100;6.886;2022-12-11T01:11:36;3.40;48.00
60965;DHT22;46834;51.100;6.886;2022-12-11T01:14:02;3.40;48.00
60965;DHT22;46834;51.100;6.886;2022-12-11T01:16:28;3.40;48.00
60965;DHT22;46834;51.100;6.886;2022-12-11T01:18:54;3.40;48.00
60965;DHT22;46834;51.100;6.886;2022-12-11T01:21:21;3.40;48.00
60965;DHT22;46834;51.100;6.886;2022-12-11T01:23:49;3.40;48.00
60965;DHT22;46834;51.100;6.886;2022-12-11T01:26:15;3.40;48.00
60965;DHT22;46834;51.100;6.886;2022-12-11T01:28:42;3.40;48.00
60965;DHT22;46834;51.100;6.886;2022-12-11T01:31:13;3.40;48.00
60965;DHT22;46834;51.100;6.886;2022-12-11T01:33:40;3.40;48.00
60965;DHT22;46834;51.100;6.886;2022-12-11T01:36:16;3.40;48.00
60965;DHT22;46834;51.100;6.886;2022-12-11T01:38:45;3.40;48.00
60965;DHT22;46834;51.100;6.886;2022-12-11T01:41:12;3.40;48.00
60965;DHT22;46834;51.100;6.886;2022-12-11T01:46:52;3.40;48.10
60965;DHT22;46834;51.100;6.886;2022-12-11T01:49:22;3.40;48.00
60965;DHT22;46834;51.100;6.886;2022-12-11T01:54:23;3.40;48.00
60965;DHT22;46834;51.100;6.886;2022-12-11T01:56:56;3.40;48.00
60965;DHT22;46834;51.100;6.886;2022-12-11T01:59:30;3.40;48.00
60965;DHT22;46834;51.100;6.886;2022-12-11T02:02:12;3.40;48.10
60965;DHT22;46834;51.100;6.886;2022-12-11T02:04:43;3.40;48.10
60965;DHT22;46834;51.100;6.886;2022-12-11T02:07:10;3.40;48.00
60965;DHT22;46834;51.100;6.886;2022-12-11T02:09:37;3.40;48.00
60965;DHT22;46834;51.100;6.886;2022-12-11T02:15:14;3.40;48.10
60965;DHT22;46834;51.100;6.886;2022-12-11T02:20:53;3.40;47.80
60965;DHT22;46834;51.100;6.886;2022-12-11T02:29:35;3.30;47.70
60965;DHT22;46834;51.100;6.886;2022-12-11T02:32:26;3.30;47.80
60965;DHT22;46834;51.100;6.886;2022-12-11T02:35:07;3.30;47.90
60965;DHT22;46834;51.100;6.886;2022-12-11T02:38:19;3.30;47.80
60965;DHT22;46834;51.100;6.886;2022-12-11T02:40:52;3.30;47.80
60965;DHT22;46834;51.100;6.886;2022-12-11T02:43:21;3.30;47.80
60965;DHT22;46834;51.100;6.886;2022-12-11T02:45:49;3.20;47.80
60965;DHT22;46834;51.100;6.886;2022-12-11T02:48:17;3.20;47.80
60965;DHT22;46834;51.100;6.886;2022-12-11T02:50:48;3.20;47.80
60965;DHT22;46834;51.100;6.886;2022-12-11T02:53:20;3.20;47.80
60965;DHT22;46834;51.100;6.886;2022-12-11T02:55:51;3.20;47.90
60965;DHT22;46834;51.100;6.886;2022-12-11T02:58:23;3.20;47.90
60965;DHT22;46834;51.100;6.886;2022-12-11T03:00:53;3.20;47.90
60965;DHT22;46834;51.100;6.886;2022-12-11T03:03:19;3.20;47.80
60965;DHT22;46834;51.100;6.886;2022-12-11T03:05:45;3.20;47.80
60965;DHT22;46834;51.100;6.886;2022-12-11T03:08:11;3.20;47.80
60965;DHT22;46834;51.100;6.886;2022-12-11T03:10:42;3.20;47.80
60965;DHT22;46834;51.100;6.886;2022-12-11T03:13:08;3.20;47.90
60965;DHT22;46834;51.100;6.886;2022-12-11T03:15:45;3.20;47.80
60965;DHT22;46834;51.100;6.886;2022-12-11T03:24:26;3.30;47.70
60965;DHT22;46834;51.100;6.886;2022-12-11T03:26:58;3.30;47.70
60965;DHT22;46834;51.100;6.886;2022-12-11T03:29:34;3.30;47.70
60965;DHT22;46834;51.100;6.886;2022-12-11T03:32:12;3.30;47.70
60965;DHT22;46834;51.100;6.886;2022-12-11T03:37:31;3.30;47.70
60965;DHT22;46834;51.100;6.886;2022-12-11T03:40:03;3.30;47.70
60965;DHT22;46834;51.100;6.886;2022-12-11T03:42:33;3.30;47.60
60965;DHT22;46834;51.100;6.886;2022-12-11T03:45:01;3.30;48.20
60965;DHT22;46834;51.100;6.886;2022-12-11T03:47:30;3.30;47.70
60965;DHT22;46834;51.100;6.886;2022-12-11T03:49:57;3.30;47.70
60965;DHT22;46834;51.100;6.886;2022-12-11T03:52:25;3.30;47.70
60965;DHT22;46834;51.100;6.886;2022-12-11T03:54:55;3.30;47.70
60965;DHT22;46834;51.100;6.886;2022-12-11T03:57:29;3.30;47.80
60965;DHT22;46834;51.100;6.886;2022-12-11T03:59:57;3.30;47.70
60965;DHT22;46834;51.100;6.886;2022-12-11T04:02:23;3.40;47.80
60965;DHT22;46834;51.100;6.886;2022-12-11T04:04:49;3.40;47.80
60965;DHT22;46834;51.100;6.886;2022-12-11T04:07:15;3.40;47.80
60965;DHT22;46834;51.100;6.886;2022-12-11T04:09:40;3.40;47.80
60965;DHT22;46834;51.100;6.886;2022-12-11T04:12:06;3.40;47.80
60965;DHT22;46834;51.100;6.886;2022-12-11T04:14:32;3.40;47.70
60965;DHT22;46834;51.100;6.886;2022-12-11T04:17:16;3.40;47.70
60965;DHT22;46834;51.100;6.886;2022-12-11T04:20:03;3.40;47.70
60965;DHT22;46834;51.100;6.886;2022-12-11T04:22:49;3.40;47.70
60965;DHT22;46834;51.100;6.886;2022-12-11T04:25:33;3.40;47.70
60965;DHT22;46834;51.100;6.886;2022-12-11T04:27:58;3.40;47.70
60965;DHT22;46834;51.100;6.886;2022-12-11T04:30:24;3.40;47.70
60965;DHT22;46834;51.100;6.886;2022-12-11T04:32:52;3.40;47.70
60965;DHT22;46834;51.100;6.886;2022-12-11T04:35:19;3.40;47.70
60965;DHT22;46834;51.100;6.886;2022-12-11T04:37:45;3.40;47.60
60965;DHT22;46834;51.100;6.886;2022-12-11T04:40:14;3.40;47.70
60965;DHT22;46834;51.100;6.886;2022-12-11T04:42:42;3.40;47.60
60965;DHT22;46834;51.100;6.886;2022-12-11T04:45:08;3.40;47.60
60965;DHT22;46834;51.100;6.886;2022-12-11T04:47:36;3.40;47.70
60965;DHT22;46834;51.100;6.886;2022-12-11T04:50:04;3.40;47.70
60965;DHT22;46834;51.100;6.886;2022-12-11T04:52:31;3.40;47.60
60965;DHT22;46834;51.100;6.886;2022-12-11T04:54:57;3.40;47.60
60965;DHT22;46834;51.100;6.886;2022-12-11T04:57:22;3.40;47.60
60965;DHT22;46834;51.100;6.886;2022-12-11T04:59:48;3.40;47.60
60965;DHT22;46834;51.100;6.886;2022-12-11T05:02:14;3.40;47.60
60965;DHT22;46834;51.100;6.886;2022-12-11T05:04:41;3.40;47.60
60965;DHT22;46834;51.100;6.886;2022-12-11T05:07:07;3.40;47.60
60965;DHT22;46834;51.100;6.886;2022-12-11T05:09:34;3.40;47.60
60965;DHT22;46834;51.100;6.886;2022-12-11T05:12:00;3.40;47.60
60965;DHT22;46834;51.100;6.886;2022-12-11T05:14:27;3.40;47.60
60965;DHT22;46834;51.100;6.886;2022-12-11T05:16:56;3.40;47.60
60965;DHT22;46834;51.100;6.886;2022-12-11T05:19:23;3.50;47.60
60965;DHT22;46834;51.100;6.886;2022-12-11T05:21:49;3.40;48.10
60965;DHT22;46834;51.100;6.886;2022-12-11T05:24:15;3.40;47.60
60965;DHT22;46834;51.100;6.886;2022-12-11T05:26:40;3.40;47.60
60965;DHT22;46834;51.100;6.886;2022-12-11T05:29:06;3.50;47.60
60965;DHT22;46834;51.100;6.886;2022-12-11T05:31:32;3.40;47.50
60965;DHT22;46834;51.100;6.886;2022-12-11T05:33:57;3.50;47.60
60965;DHT22;46834;51.100;6.886;2022-12-11T05:36:29;3.50;47.60
60965;DHT22;46834;51.100;6.886;2022-12-11T05:38:57;3.50;47.60
60965;DHT22;46834;51.100;6.886;2022-12-11T05:41:26;3.50;47.60
60965;DHT22;46834;51.100;6.886;2022-12-11T05:43:53;3.50;47.60
60965;DHT22;46834;51.100;6.886;2022-12-11T05:46:24;3.50;47.50
60965;DHT22;46834;51.100;6.886;2022-12-11T05:48:54;3.50;47.60
60965;DHT22;46834;51.100;6.886;2022-12-11T05:51:25;3.50;47.50
60965;DHT22;46834;51.100;6.886;2022-12-11T05:53:52;3.50;47.60
60965;DHT22;46834;51.100;6.886;2022-12-11T05:56:26;3.50;47.60
60965;DHT22;46834;51.100;6.886;2022-12-11T05:58:54;3.50;47.60
60965;DHT22;46834;51.100;6.886;2022-12-11T06:01:27;3.50;47.60
60965;DHT22;46834;51.100;6.886;2022-12-11T06:03:54;3.50;48.10
60965;DHT22;46834;51.100;6.886;2022-12-11T06:06:21;3.50;47.50
60965;DHT22;46834;51.100;6.886;2022-12-11T06:08:52;3.50;47.50
60965;DHT22;46834;51.100;6.886;2022-12-11T06:11:20;3.50;47.50
60965;DHT22;46834;51.100;6.886;2022-12-11T06:13:46;3.50;47.50
60965;DHT22;46834;51.100;6.886;2022-12-11T06:16:12;3.50;47.50
60965;DHT22;46834;51.100;6.886;2022-12-11T06:18:40;3.50;47.50
60965;DHT22;46834;51.100;6.886;2022-12-11T06:21:29;3.50;47.40
60965;DHT22;46834;51.100;6.886;2022-12-11T06:24:00;3.50;47.30
60965;DHT22;46834;51.100;6.886;2022-12-11T06:26:27;3.50;47.40
60965;DHT22;46834;51.100;6.886;2022-12-11T06:28:53;3.50;47.40
60965;DHT22;46834;51.100;6.886;2022-12-11T06:31:19;3.50;47.40
60965;DHT22;46834;51.100;6.886;2022-12-11T06:33:45;3.40;47.30
60965;DHT22;46834;51.100;6.886;2022-12-11T06:36:17;3.40;47.30
60965;DHT22;46834;51.100;6.886;2022-12-11T06:38:44;3.40;47.30
60965;DHT22;46834;51.100;6.886;2022-12-11T06:41:11;3.40;47.30
60965;DHT22;46834;51.100;6.886;2022-12-11T06:43:38;3.40;47.30
60965;DHT22;46834;51.100;6.886;2022-12-11T06:46:06;3.40;47.40
60965;DHT22;46834;51.100;6.886;2022-12-11T06:48:34;3.40;47.40
60965;DHT22;46834;51.100;6.886;2022-12-11T06:51:08;3.40;47.40
60965;DHT22;46834;51.100;6.886;2022-12-11T06:53:35;3.40;47.40
60965;DHT22;46834;51.100;6.886;2022-12-11T06:56:03;3.40;47.40
60965;DHT22;46834;51.100;6.886;2022-12-11T06:58:37;3.40;47.40
60965;DHT22;46834;51.100;6.886;2022-12-11T07:01:16;3.40;47.40
60965;DHT22;46834;51.100;6.886;2022-12-11T07:03:43;3.50;47.50
60965;DHT22;46834;51.100;6.886;2022-12-11T07:06:09;3.40;47.40
60965;DHT22;46834;51.100;6.886;2022-12-11T07:08:35;3.50;47.50
60965;DHT22;46834;51.100;6.886;2022-12-11T07:11:06;3.40;47.40
60965;DHT22;46834;51.100;6.886;2022-12-11T07:13:34;3.40;47.30
60965;DHT22;46834;51.100;6.886;2022-12-11T07:16:01;3.40;47.30
60965;DHT22;46834;51.100;6.886;2022-12-11T07:18:29;3.40;47.30
60965;DHT22;46834;51.100;6.886;2022-12-11T07:20:59;3.50;47.40
60965;DHT22;46834;51.100;6.886;2022-12-11T07:23:26;3.50;47.40
60965;DHT22;46834;51.100;6.886;2022-12-11T07:25:53;3.40;47.40
60965;DHT22;46834;51.100;6.886;2022-12-11T07:28:19;3.40;47.40
60965;DHT22;46834;51.100;6.886;2022-12-11T07:30:45;3.50;47.50
60965;DHT22;46834;51.100;6.886;2022-12-11T07:33:11;3.40;47.40
60965;DHT22;46834;51.100;6.886;2022-12-11T07:35:37;3.40;47.30
60965;DHT22;46834;51.100;6.886;2022-12-11T07:38:02;3.50;47.50
60965;DHT22;46834;51.100;6.886;2022-12-11T07:40:28;3.50;47.50
60965;DHT22;46834;51.100;6.886;2022-12-11T07:42:54;3.50;48.00
60965;DHT22;46834;51.100;6.886;2022-12-11T07:45:20;3.50;47.40
60965;DHT22;46834;51.100;6.886;2022-12-11T07:47:45;3.50;47.40
60965;DHT22;46834;51.100;6.886;2022-12-11T07:50:11;3.50;47.30
60965;DHT22;46834;51.100;6.886;2022-12-11T07:52:37;3.40;47.20
60965;DHT22;46834;51.100;6.886;2022-12-11T07:55:03;3.50;47.30
60965;DHT22;46834;51.100;6.886;2022-12-11T07:57:29;3.40;47.30
60965;DHT22;46834;51.100;6.886;2022-12-11T07:59:55;3.40;47.30
60965;DHT22;46834;51.100;6.886;2022-12-11T08:02:21;3.40;47.30
60965;DHT22;46834;51.100;6.886;2022-12-11T08:04:47;3.40;47.30
60965;DHT22;46834;51.100;6.886;2022-12-11T08:07:12;3.50;47.40
60965;DHT22;46834;51.100;6.886;2022-12-11T08:09:38;3.50;47.30
60965;DHT22;46834;51.100;6.886;2022-12-11T08:12:04;3.40;47.20
60965;DHT22;46834;51.100;6.886;2022-12-11T08:14:30;3.40;47.20
60965;DHT22;46834;51.100;6.886;2022-12-11T08:16:56;3.40;47.20
60965;DHT22;46834;51.100;6.886;2022-12-11T08:19:22;3.40;47.20
60965;DHT22;46834;51.100;6.886;2022-12-11T08:21:48;3.40;47.20
60965;DHT22;46834;51.100;6.886;2022-12-11T08:24:13;3.40;47.30
60965;DHT22;46834;51.100;6.886;2022-12-11T08:26:44;3.40;47.30
60965;DHT22;46834;51.100;6.886;2022-12-11T08:29:10;3.40;47.30
60965;DHT22;46834;51.100;6.886;2022-12-11T08:31:37;3.40;47.30
60965;DHT22;46834;51.100;6.886;2022-12-11T08:34:04;3.50;47.30
60965;DHT22;46834;51.100;6.886;2022-12-11T08:36:30;3.50;47.30
60965;DHT22;46834;51.100;6.886;2022-12-11T08:38:56;3.50;47.30
60965;DHT22;46834;51.100;6.886;2022-12-11T08:41:27;3.50;47.30
60965;DHT22;46834;51.100;6.886;2022-12-11T08:43:54;3.50;47.30
60965;DHT22;46834;51.100;6.886;2022-12-11T08:46:23;3.50;47.30
60965;DHT22;46834;51.100;6.886;2022-12-11T08:48:50;3.50;47.30
60965;DHT22;46834;51.100;6.886;2022-12-11T08:51:20;3.50;47.30
60965;DHT22;46834;51.100;6.886;2022-12-11T08:53:48;3.60;47.40
60965;DHT22;46834;51.100;6.886;2022-12-11T08:56:18;3.60;47.40
60965;DHT22;46834;51.100;6.886;2022-12-11T08:58:46;3.60;47.30
60965;DHT22;46834;51.100;6.886;2022-12-11T09:01:14;3.60;47.30
60965;DHT22;46834;51.100;6.886;2022-12-11T09:03:43;3.60;47.30
60965;DHT22;46834;51.100;6.886;2022-12-11T09:06:12;3.70;47.30
60965;DHT22;46834;51.100;6.886;2022-12-11T09:08:40;3.70;47.30
60965;DHT22;46834;51.100;6.886;2022-12-11T09:11:18;3.70;47.30
60965;DHT22;46834;51.100;6.886;2022-12-11T09:13:46;3.70;47.20
60965;DHT22;46834;51.100;6.886;2022-12-11T09:16:14;3.70;47.30
60965;DHT22;46834;51.100;6.886;2022-12-11T09:18:44;3.70;47.30
60965;DHT22;46834;51.100;6.886;2022-12-11T09:21:14;3.70;47.30
60965;DHT22;46834;51.100;6.886;2022-12-11T09:23:41;3.70;47.20
60965;DHT22;46834;51.100;6.886;2022-12-11T09:26:10;3.70;47.20
60965;DHT22;46834;51.100;6.886;2022-12-11T09:28:39;3.80;47.20
60965;DHT22;46834;51.100;6.886;2022-12-11T09:31:18;3.80;47.20
60965;DHT22;46834;51.100;6.886;2022-12-11T09:33:47;3.80;47.10
60965;DHT22;46834;51.100;6.886;2022-12-11T09:36:13;3.80;47.20
60965;DHT22;46834;51.100;6.886;2022-12-11T09:38:40;3.80;47.80
60965;DHT22;46834;51.100;6.886;2022-12-11T09:41:28;3.80;47.20
60965;DHT22;46834;51.100;6.886;2022-12-11T09:44:29;3.90;47.10
60965;DHT22;46834;51.100;6.886;2022-12-11T09:47:20;3.90;47.10
60965;DHT22;46834;51.100;6.886;2022-12-11T09:49:59;3.90;47.10
60965;DHT22;46834;51.100;6.886;2022-12-11T09:58:55;3.90;47.00
60965;DHT22;46834;51.100;6.886;2022-12-11T10:04:39;3.90;46.90
60965;DHT22;46834;51.100;6.886;2022-12-11T10:10:49;4.00;46.90
60965;DHT22;46834;51.100;6.886;2022-12-11T10:19:03;4.00;46.90
60965;DHT22;46834;51.100;6.886;2022-12-11T10:21:40;4.00;47.00
60965;DHT22;46834;51.100;6.886;2022-12-11T10:27:19;4.00;47.00
60965;DHT22;46834;51.100;6.886;2022-12-11T10:30:24;4.00;46.90
60965;DHT22;46834;51.100;6.886;2022-12-11T10:38:37;4.00;46.90
60965;DHT22;46834;51.100;6.886;2022-12-11T10:41:31;4.00;46.70
60965;DHT22;46834;51.100;6.886;2022-12-11T10:44:17;4.00;46.80
60965;DHT22;46834;51.100;6.886;2022-12-11T10:46:46;4.00;46.80
60965;DHT22;46834;51.100;6.886;2022-12-11T10:49:24;4.10;47.00
60965;DHT22;46834;51.100;6.886;2022-12-11T10:51:56;4.10;46.90
60965;DHT22;46834;51.100;6.886;2022-12-11T10:56:56;4.10;47.00
60965;DHT22;46834;51.100;6.886;2022-12-11T10:59:48;4.10;47.00
60965;DHT22;46834;51.100;6.886;2022-12-11T11:02:30;4.10;46.80
60965;DHT22;46834;51.100;6.886;2022-12-11T11:05:15;4.10;46.90
60965;DHT22;46834;51.100;6.886;2022-12-11T11:10:57;4.10;46.80
60965;DHT22;46834;51.100;6.886;2022-12-11T11:13:26;4.10;46.80
60965;DHT22;46834;51.100;6.886;2022-12-11T11:16:04;4.10;47.00
60965;DHT22;46834;51.100;6.886;2022-12-11T11:18:34;4.20;47.00
60965;DHT22;46834;51.100;6.886;2022-12-11T11:21:01;4.20;47.10
60965;DHT22;46834;51.100;6.886;2022-12-11T11:23:28;4.20;47.00
60965;DHT22;46834;51.100;6.886;2022-12-11T11:25:59;4.20;47.00
60965;DHT22;46834;51.100;6.886;2022-12-11T11:28:37;4.20;47.00
60965;DHT22;46834;51.100;6.886;2022-12-11T11:31:09;4.20;46.90
60965;DHT22;46834;51.100;6.886;2022-12-11T11:33:54;4.30;47.00
60965;DHT22;46834;51.100;6.886;2022-12-11T11:36:28;4.30;46.90
60965;DHT22;46834;51.100;6.886;2022-12-11T11:39:19;4.30;47.00
60965;DHT22;46834;51.100;6.886;2022-12-11T11:41:59;4.30;46.80
60965;DHT22;46834;51.100;6.886;2022-12-11T11:44:45;4.30;46.80
60965;DHT22;46834;51.100;6.886;2022-12-11T11:47:18;4.30;46.80
60965;DHT22;46834;51.100;6.886;2022-12-11T11:52:52;4.30;46.80
60965;DHT22;46834;51.100;6.886;2022-12-11T11:58:26;4.30;46.60
60965;DHT22;46834;51.100;6.886;2022-12-11T12:01:01;4.30;46.70
60965;DHT22;46834;51.100;6.886;2022-12-11T12:03:27;4.20;46.70
60965;DHT22;46834;51.100;6.886;2022-12-11T12:08:45;4.20;46.80
60965;DHT22;46834;51.100;6.886;2022-12-11T12:11:25;4.20;46.70
60965;DHT22;46834;51.100;6.886;2022-12-11T12:22:44;4.20;46.80
60965;DHT22;46834;51.100;6.886;2022-12-11T12:31:16;4.20;46.60
60965;DHT22;46834;51.100;6.886;2022-12-11T12:34:18;4.20;46.70
60965;DHT22;46834;51.100;6.886;2022-12-11T12:37:25;4.20;46.70
60965;DHT22;46834;51.100;6.886;2022-12-11T12:48:59;4.30;46.70
60965;DHT22;46834;51.100;6.886;2022-12-11T12:51:27;4.30;46.90
60965;DHT22;46834;51.100;6.886;2022-12-11T12:53:59;4.30;47.00
60965;DHT22;46834;51.100;6.886;2022-12-11T12:56:29;4.30;46.90
60965;DHT22;46834;51.100;6.886;2022-12-11T12:58:57;4.30;47.00
60965;DHT22;46834;51.100;6.886;2022-12-11T13:01:27;4.40;47.00
60965;DHT22;46834;51.100;6.886;2022-12-11T13:06:43;4.40;46.80
60965;DHT22;46834;51.100;6.886;2022-12-11T13:09:21;4.40;46.60
60965;DHT22;46834;51.100;6.886;2022-12-11T13:11:51;4.40;46.70
60965;DHT22;46834;51.100;6.886;2022-12-11T13:16:49;4.40;46.80
60965;DHT22;46834;51.100;6.886;2022-12-11T13:24:30;4.40;46.80
60965;DHT22;46834;51.100;6.886;2022-12-11T13:27:21;4.40;46.80
60965;DHT22;46834;51.100;6.886;2022-12-11T13:33:07;4.50;46.80
60965;DHT22;46834;51.100;6.886;2022-12-11T13:35:42;4.50;46.60
60965;DHT22;46834;51.100;6.886;2022-12-11T13:38:17;4.50;46.70
60965;DHT22;46834;51.100;6.886;2022-12-11T13:40:51;4.50;46.60
60965;DHT22;46834;51.100;6.886;2022-12-11T13:43:22;4.50;46.60
60965;DHT22;46834;51.100;6.886;2022-12-11T13:45:54;4.50;46.60
60965;DHT22;46834;51.100;6.886;2022-12-11T13:48:38;4.40;46.50
60965;DHT22;46834;51.100;6.886;2022-12-11T13:51:16;4.40;46.40
60965;DHT22;46834;51.100;6.886;2022-12-11T13:53:44;4.40;46.40
60965;DHT22;46834;51.100;6.886;2022-12-11T13:56:20;4.40;46.50
60965;DHT22;46834;51.100;6.886;2022-12-11T13:58:47;4.40;46.30
60965;DHT22;46834;51.100;6.886;2022-12-11T14:01:24;4.30;46.40
60965;DHT22;46834;51.100;6.886;2022-12-11T14:04:02;4.30;46.40
60965;DHT22;46834;51.100;6.886;2022-12-11T14:06:33;4.30;46.40
60965;DHT22;46834;51.100;6.886;2022-12-11T14:09:02;4.30;46.50
60965;DHT22;46834;51.100;6.886;2022-12-11T14:11:33;4.30;46.50
60965;DHT22;46834;51.100;6.886;2022-12-11T14:14:04;4.30;46.60
60965;DHT22;46834;51.100;6.886;2022-12-11T14:16:33;4.30;46.50
60965;DHT22;46834;51.100;6.886;2022-12-11T14:19:05;4.30;46.60
60965;DHT22;46834;51.100;6.886;2022-12-11T14:21:32;4.30;46.50
60965;DHT22;46834;51.100;6.886;2022-12-11T14:23:59;4.30;46.60
60965;DHT22;46834;51.100;6.886;2022-12-11T14:26:34;4.30;46.60
60965;DHT22;46834;51.100;6.886;2022-12-11T14:29:03;4.30;46.60
60965;DHT22;46834;51.100;6.886;2022-12-11T14:31:33;4.30;46.60
60965;DHT22;46834;51.100;6.886;2022-12-11T14:34:13;4.30;46.60
60965;DHT22;46834;51.100;6.886;2022-12-11T14:36:42;4.30;46.70
60965;DHT22;46834;51.100;6.886;2022-12-11T14:39:13;4.30;47.30
60965;DHT22;46834;51.100;6.886;2022-12-11T14:42:05;4.40;46.80
60965;DHT22;46834;51.100;6.886;2022-12-11T14:44:48;4.40;46.80
60965;DHT22;46834;51.100;6.886;2022-12-11T14:47:22;4.40;46.80
60965;DHT22;46834;51.100;6.886;2022-12-11T14:53:21;4.30;46.60
60965;DHT22;46834;51.100;6.886;2022-12-11T14:55:51;4.30;46.60
60965;DHT22;46834;51.100;6.886;2022-12-11T14:58:25;4.30;46.60
60965;DHT22;46834;51.100;6.886;2022-12-11T15:01:00;4.30;46.60
60965;DHT22;46834;51.100;6.886;2022-12-11T15:03:37;4.30;46.70
60965;DHT22;46834;51.100;6.886;2022-12-11T15:06:25;4.30;46.70
60965;DHT22;46834;51.100;6.886;2022-12-11T15:08:53;4.20;46.60
60965;DHT22;46834;51.100;6.886;2022-12-11T15:11:20;4.20;46.70
60965;DHT22;46834;51.100;6.886;2022-12-11T15:16:15;4.20;46.70
60965;DHT22;46834;51.100;6.886;2022-12-11T15:18:41;4.20;46.70
60965;DHT22;46834;51.100;6.886;2022-12-11T15:21:10;4.20;46.80
60965;DHT22;46834;51.100;6.886;2022-12-11T15:23:51;4.20;46.70
60965;DHT22;46834;51.100;6.886;2022-12-11T15:26:20;4.20;46.60
60965;DHT22;46834;51.100;6.886;2022-12-11T15:29:01;4.20;46.70
60965;DHT22;46834;51.100;6.886;2022-12-11T15:32:01;4.30;46.70
60965;DHT22;46834;51.100;6.886;2022-12-11T15:34:32;4.20;46.70
60965;DHT22;46834;51.100;6.886;2022-12-11T15:37:00;4.30;46.80
60965;DHT22;46834;51.100;6.886;2022-12-11T15:39:26;4.20;46.70
60965;DHT22;46834;51.100;6.886;2022-12-11T15:41:52;4.20;46.80
60965;DHT22;46834;51.100;6.886;2022-12-11T15:44:20;4.20;46.80
60965;DHT22;46834;51.100;6.886;2022-12-11T15:46:48;4.20;46.80
60965;DHT22;46834;51.100;6.886;2022-12-11T15:49:13;4.20;46.70
60965;DHT22;46834;51.100;6.886;2022-12-11T15:51:39;4.20;46.80
60965;DHT22;46834;51.100;6.886;2022-12-11T15:54:05;4.20;46.80
60965;DHT22;46834;51.100;6.886;2022-12-11T15:56:31;4.20;46.80
60965;DHT22;46834;51.100;6.886;2022-12-11T15:59:03;4.20;46.80
60965;DHT22;46834;51.100;6.886;2022-12-11T16:01:31;4.30;46.80
60965;DHT22;46834;51.100;6.886;2022-12-11T16:03:56;4.30;46.80
60965;DHT22;46834;51.100;6.886;2022-12-11T16:06:22;4.20;46.70
60965;DHT22;46834;51.100;6.886;2022-12-11T16:08:47;4.30;46.80
60965;DHT22;46834;51.100;6.886;2022-12-11T16:11:13;4.30;46.70
60965;DHT22;46834;51.100;6.886;2022-12-11T16:13:39;4.30;46.70
60965;DHT22;46834;51.100;6.886;2022-12-11T16:16:05;4.20;46.60
60965;DHT22;46834;51.100;6.886;2022-12-11T16:18:31;4.20;46.60
60965;DHT22;46834;51.100;6.886;2022-12-11T16:20:56;4.20;46.60
60965;DHT22;46834;51.100;6.886;2022-12-11T16:23:22;4.30;46.70
60965;DHT22;46834;51.100;6.886;2022-12-11T16:25:48;4.20;46.60
60965;DHT22;46834;51.100;6.886;2022-12-11T16:28:17;4.20;46.60
60965;DHT22;46834;51.100;6.886;2022-12-11T16:30:45;4.20;46.60
60965;DHT22;46834;51.100;6.886;2022-12-11T16:33:11;4.20;46.60
60965;DHT22;46834;51.100;6.886;2022-12-11T16:35:38;4.20;46.60
60965;DHT22;46834;51.100;6.886;2022-12-11T16:38:03;4.20;46.60
60965;DHT22;46834;51.100;6.886;2022-12-11T16:40:29;4.20;46.60
60965;DHT22;46834;51.100;6.886;2022-12-11T16:42:56;4.20;46.60
60965;DHT22;46834;51.100;6.886;2022-12-11T16:45:23;4.20;46.60
60965;DHT22;46834;51.100;6.886;2022-12-11T16:47:51;4.20;46.60
60965;DHT22;46834;51.100;6.886;2022-12-11T16:50:17;4.20;46.60
60965;DHT22;46834;51.100;6.886;2022-12-11T16:52:44;4.20;46.60
60965;DHT22;46834;51.100;6.886;2022-12-11T16:55:11;4.20;46.60
60965;DHT22;46834;51.100;6.886;2022-12-11T16:57:37;4.30;46.70
60965;DHT22;46834;51.100;6.886;2022-12-11T17:00:04;4.20;46.50
60965;DHT22;46834;51.100;6.886;2022-12-11T17:02:31;4.30;46.60
60965;DHT22;46834;51.100;6.886;2022-12-11T17:04:57;4.30;46.60
60965;DHT22;46834;51.100;6.886;2022-12-11T17:07:23;4.30;46.60
60965;DHT22;46834;51.100;6.886;2022-12-11T17:09:48;4.30;46.60
60965;DHT22;46834;51.100;6.886;2022-12-11T17:12:14;4.30;46.50
60965;DHT22;46834;51.100;6.886;2022-12-11T17:14:40;4.30;46.50
60965;DHT22;46834;51.100;6.886;2022-12-11T17:17:06;4.30;46.40
60965;DHT22;46834;51.100;6.886;2022-12-11T17:19:31;4.30;46.40
60965;DHT22;46834;51.100;6.886;2022-12-11T17:21:57;4.30;46.40
60965;DHT22;46834;51.100;6.886;2022-12-11T17:24:23;4.30;46.30
60965;DHT22;46834;51.100;6.886;2022-12-11T17:26:49;4.30;46.30
60965;DHT22;46834;51.100;6.886;2022-12-11T17:29:15;4.20;46.10
60965;DHT22;46834;51.100;6.886;2022-12-11T17:31:40;4.20;46.10
60965;DHT22;46834;51.100;6.886;2022-12-11T17:34:06;4.20;46.10
60965;DHT22;46834;51.100;6.886;2022-12-11T17:36:32;4.20;46.00
60965;DHT22;46834;51.100;6.886;2022-12-11T17:38:58;4.20;46.10
60965;DHT22;46834;51.100;6.886;2022-12-11T17:41:24;4.20;46.00
60965;DHT22;46834;51.100;6.886;2022-12-11T17:43:51;4.10;46.00
60965;DHT22;46834;51.100;6.886;2022-12-11T17:46:19;4.10;46.00
60965;DHT22;46834;51.100;6.886;2022-12-11T17:48:46;4.10;46.00
60965;DHT22;46834;51.100;6.886;2022-12-11T17:51:14;4.10;46.00
60965;DHT22;46834;51.100;6.886;2022-12-11T17:53:45;4.10;46.00
60965;DHT22;46834;51.100;6.886;2022-12-11T17:56:11;4.10;46.00